createdAt,value
2017-05-30T00:00:17.368Z,20.37
2017-05-30T00:00:36.783Z,20.42
2017-05-30T00:00:56.764Z,20.35
2017-05-30T00:01:16.714Z,20.34
2017-05-30T00:01:36.680Z,20.4
2017-05-30T00:01:56.640Z,20.3
2017-05-30T00:02:16.577Z,20.34
2017-05-30T00:02:36.526Z,20.31
2017-05-30T00:02:55.936Z,20.38
2017-05-30T00:03:15.901Z,20.46
2017-05-30T00:03:35.928Z,20.38
2017-05-30T00:03:55.903Z,20.33
2017-05-30T00:04:15.868Z,20.33
2017-05-30T00:04:35.865Z,20.38
2017-05-30T00:04:55.273Z,20.38
2017-05-30T00:05:14.735Z,20.38
2017-05-30T00:05:33.629Z,20.37
2017-05-30T00:05:53.617Z,20.37
2017-05-30T00:06:13.035Z,20.38
2017-05-30T00:06:32.454Z,20.27
2017-05-30T00:06:52.407Z,20.38
2017-05-30T00:07:12.358Z,20.33
2017-05-30T00:07:32.344Z,20.34
2017-05-30T00:07:52.326Z,20.33
2017-05-30T00:08:11.723Z,20.4
2017-05-30T00:08:31.145Z,20.35
2017-05-30T00:08:50.552Z,20.46
2017-05-30T00:09:10.512Z,20.4
2017-05-30T00:09:29.978Z,20.4
2017-05-30T00:09:50.044Z,20.4
2017-05-30T00:10:09.106Z,20.4
2017-05-30T00:10:28.517Z,20.34
2017-05-30T00:10:47.358Z,20.35
2017-05-30T00:11:07.329Z,20.37
2017-05-30T00:11:26.738Z,20.4
2017-05-30T00:11:46.743Z,20.31
2017-05-30T00:12:06.703Z,20.4
2017-05-30T00:12:24.995Z,20.34
2017-05-30T00:12:44.469Z,20.35
2017-05-30T00:13:04.450Z,20.34
2017-05-30T00:13:24.410Z,20.42
2017-05-30T00:13:44.383Z,20.37
2017-05-30T00:14:03.774Z,20.35
2017-05-30T00:14:22.633Z,20.35
2017-05-30T00:14:42.619Z,20.34
2017-05-30T00:15:02.551Z,20.31
2017-05-30T00:15:22.541Z,20.35
2017-05-30T00:15:41.959Z,20.35
2017-05-30T00:16:01.954Z,20.3
2017-05-30T00:16:21.927Z,20.27
2017-05-30T00:16:41.310Z,20.35
2017-05-30T00:17:01.279Z,20.35
2017-05-30T00:17:21.194Z,20.34
2017-05-30T00:17:40.073Z,20.33
2017-05-30T00:18:00.042Z,20.37
2017-05-30T00:18:20.034Z,20.38
2017-05-30T00:18:39.439Z,20.4
2017-05-30T00:18:59.385Z,20.4
2017-05-30T00:19:18.771Z,20.42
2017-05-30T00:19:38.724Z,20.37
2017-05-30T00:19:58.755Z,20.51
2017-05-30T00:20:18.753Z,20.54
2017-05-30T00:20:37.604Z,20.47
2017-05-30T00:20:57.002Z,20.5
2017-05-30T00:21:16.365Z,20.43
2017-05-30T00:21:34.751Z,20.46
2017-05-30T00:21:54.880Z,20.46
2017-05-30T00:22:14.915Z,20.46
2017-05-30T00:22:34.348Z,20.47
2017-05-30T00:22:54.375Z,20.5
2017-05-30T00:23:13.775Z,20.49
2017-05-30T00:23:33.711Z,20.42
2017-05-30T00:23:53.633Z,20.51
2017-05-30T00:24:13.587Z,20.53
2017-05-30T00:24:32.968Z,20.5
2017-05-30T00:24:52.913Z,20.53
2017-05-30T00:25:12.922Z,20.43
2017-05-30T00:25:31.819Z,20.47
2017-05-30T00:25:51.239Z,20.53
2017-05-30T00:26:10.112Z,20.4
2017-05-30T00:26:30.235Z,20.46
2017-05-30T00:26:49.649Z,20.47
2017-05-30T00:27:09.590Z,20.38
2017-05-30T00:27:29.570Z,20.5
2017-05-30T00:27:49.628Z,20.53
2017-05-30T00:28:08.470Z,20.46
2017-05-30T00:28:27.352Z,20.43
2017-05-30T00:28:47.321Z,20.42
2017-05-30T00:29:07.332Z,20.34
2017-05-30T00:29:27.311Z,20.53
2017-05-30T00:29:47.275Z,20.4
2017-05-30T00:30:07.279Z,20.43
2017-05-30T00:30:26.696Z,20.4
2017-05-30T00:30:46.649Z,20.5
2017-05-30T00:31:06.688Z,20.38
2017-05-30T00:31:26.670Z,20.33
2017-05-30T00:31:46.692Z,20.42
2017-05-30T00:32:06.131Z,20.34
2017-05-30T00:32:25.563Z,20.37
2017-05-30T00:32:45.602Z,20.4
2017-05-30T00:33:05.060Z,20.4
2017-05-30T00:33:25.035Z,20.4
2017-05-30T00:33:45.023Z,20.37
2017-05-30T00:34:05.029Z,20.34
2017-05-30T00:34:24.409Z,20.4
2017-05-30T00:34:43.799Z,20.4
2017-05-30T00:35:03.786Z,20.47
2017-05-30T00:35:23.228Z,20.34
2017-05-30T00:35:43.217Z,20.4
2017-05-30T00:36:03.211Z,20.35
2017-05-30T00:36:22.873Z,20.35
2017-05-30T00:36:42.816Z,20.35
2017-05-30T00:37:02.737Z,20.34
2017-05-30T00:37:21.593Z,20.43
2017-05-30T00:37:40.968Z,20.3
2017-05-30T00:38:00.932Z,20.27
2017-05-30T00:38:20.336Z,20.26
2017-05-30T00:38:40.318Z,20.33
2017-05-30T00:38:59.699Z,20.28
2017-05-30T00:39:19.100Z,20.33
2017-05-30T00:39:38.517Z,20.33
2017-05-30T00:39:57.930Z,20.24
2017-05-30T00:40:17.371Z,20.3
2017-05-30T00:40:36.845Z,20.16
2017-05-30T00:40:56.287Z,20.28
2017-05-30T00:41:15.689Z,20.33
2017-05-30T00:41:35.700Z,20.31
2017-05-30T00:41:55.669Z,20.23
2017-05-30T00:42:15.069Z,20.28
2017-05-30T00:42:33.934Z,20.19
2017-05-30T00:42:53.942Z,20.23
2017-05-30T00:43:13.968Z,20.31
2017-05-30T00:43:33.345Z,20.2
2017-05-30T00:43:53.271Z,20.23
2017-05-30T00:44:13.164Z,20.16
2017-05-30T00:44:32.558Z,20.1
2017-05-30T00:44:51.947Z,20.2
2017-05-30T00:45:11.924Z,20.18
2017-05-30T00:45:31.862Z,20.23
2017-05-30T00:45:51.877Z,20.23
2017-05-30T00:46:11.820Z,20.16
2017-05-30T00:46:31.934Z,20.09
2017-05-30T00:46:51.909Z,20.12
2017-05-30T00:47:11.851Z,20.03
2017-05-30T00:47:31.893Z,20.05
2017-05-30T00:47:51.274Z,20.06
2017-05-30T00:48:10.695Z,20.12
2017-05-30T00:48:30.734Z,20.05
2017-05-30T00:48:50.788Z,20.1
2017-05-30T00:49:10.176Z,20.1
2017-05-30T00:49:29.580Z,20.06
2017-05-30T00:49:48.982Z,20.06
2017-05-30T00:50:08.967Z,20.03
2017-05-30T00:50:28.963Z,20.1
2017-05-30T00:50:48.343Z,20.08
2017-05-30T00:51:07.752Z,20.15
2017-05-30T00:51:27.155Z,20.1
2017-05-30T00:51:47.153Z,20.06
2017-05-30T00:52:06.566Z,20.03
2017-05-30T00:52:25.963Z,20.05
2017-05-30T00:52:45.919Z,20.13
2017-05-30T00:53:05.907Z,20.09
2017-05-30T00:53:24.763Z,20.05
2017-05-30T00:53:44.735Z,20.08
2017-05-30T00:54:04.694Z,20.03
2017-05-30T00:54:24.100Z,20.03
2017-05-30T00:54:44.073Z,19.98
2017-05-30T00:55:04.046Z,20.03
2017-05-30T00:55:24.170Z,20.05
2017-05-30T00:55:44.287Z,20.05
2017-05-30T00:56:04.233Z,20.05
2017-05-30T00:56:22.547Z,20.01
2017-05-30T00:56:42.548Z,20.05
2017-05-30T00:57:02.500Z,20.08
2017-05-30T00:57:21.899Z,20.08
2017-05-30T00:57:41.335Z,20.09
2017-05-30T00:58:00.758Z,20.06
2017-05-30T00:58:20.711Z,20.12
2017-05-30T00:58:40.699Z,20.13
2017-05-30T00:59:00.082Z,20.01
2017-05-30T00:59:20.026Z,20.03
2017-05-30T00:59:39.989Z,20.01
2017-05-30T00:59:59.453Z,20.08
2017-05-30T01:00:18.291Z,20.01
2017-05-30T01:00:38.279Z,20.09
2017-05-30T01:00:57.163Z,20.08
2017-05-30T01:01:16.044Z,20.06
2017-05-30T01:01:34.845Z,20.05
2017-05-30T01:01:54.797Z,20.05
2017-05-30T01:02:14.745Z,20.06
2017-05-30T01:02:33.645Z,20
2017-05-30T01:02:53.056Z,19.93
2017-05-30T01:03:13.021Z,19.94
2017-05-30T01:03:32.983Z,19.88
2017-05-30T01:03:52.986Z,19.93
2017-05-30T01:04:12.396Z,19.83
2017-05-30T01:04:32.378Z,19.9
2017-05-30T01:04:52.310Z,19.9
2017-05-30T01:05:11.727Z,19.83
2017-05-30T01:05:31.129Z,19.76
2017-05-30T01:05:50.569Z,19.79
2017-05-30T01:06:09.444Z,19.73
2017-05-30T01:06:28.880Z,19.83
2017-05-30T01:06:48.867Z,19.79
2017-05-30T01:07:08.818Z,19.83
2017-05-30T01:07:28.813Z,19.73
2017-05-30T01:07:48.761Z,19.78
2017-05-30T01:08:08.172Z,19.73
2017-05-30T01:08:27.602Z,19.79
2017-05-30T01:08:47.575Z,19.83
2017-05-30T01:09:07.532Z,19.71
2017-05-30T01:09:26.898Z,19.82
2017-05-30T01:09:46.875Z,19.76
2017-05-30T01:10:06.299Z,19.71
2017-05-30T01:10:25.815Z,19.69
2017-05-30T01:10:45.779Z,19.61
2017-05-30T01:11:05.152Z,19.73
2017-05-30T01:11:25.092Z,19.75
2017-05-30T01:11:45.066Z,19.73
2017-05-30T01:12:05.051Z,19.75
2017-05-30T01:12:25.031Z,19.76
2017-05-30T01:12:44.995Z,19.8
2017-05-30T01:13:04.478Z,19.82
2017-05-30T01:13:24.403Z,19.72
2017-05-30T01:13:58.214Z,19.71
2017-05-30T01:14:18.210Z,19.73
2017-05-30T01:14:38.197Z,19.72
2017-05-30T01:14:58.175Z,19.76
2017-05-30T01:15:18.176Z,19.72
2017-05-30T01:15:38.138Z,19.76
2017-05-30T01:16:16.734Z,19.76
2017-05-30T01:16:36.451Z,19.87
2017-05-30T01:16:56.374Z,19.73
2017-05-30T01:17:16.364Z,19.71
2017-05-30T01:17:36.381Z,19.78
2017-05-30T01:17:55.782Z,19.73
2017-05-30T01:18:15.727Z,19.87
2017-05-30T01:18:35.692Z,19.73
2017-05-30T01:18:55.678Z,19.79
2017-05-30T01:19:15.078Z,19.72
2017-05-30T01:19:35.026Z,19.75
2017-05-30T01:19:54.993Z,19.86
2017-05-30T01:20:14.964Z,19.86
2017-05-30T01:20:34.367Z,19.82
2017-05-30T01:20:54.338Z,19.79
2017-05-30T01:21:13.141Z,19.73
2017-05-30T01:21:33.091Z,19.78
2017-05-30T01:21:53.027Z,19.79
2017-05-30T01:22:12.988Z,19.76
2017-05-30T01:22:32.414Z,19.82
2017-05-30T01:22:51.826Z,19.8
2017-05-30T01:23:10.657Z,19.86
2017-05-30T01:23:30.632Z,19.83
2017-05-30T01:23:50.040Z,19.82
2017-05-30T01:24:09.469Z,19.82
2017-05-30T01:24:29.457Z,19.83
2017-05-30T01:24:48.880Z,19.75
2017-05-30T01:25:08.832Z,19.79
2017-05-30T01:25:27.120Z,19.76
2017-05-30T01:25:47.096Z,19.73
2017-05-30T01:26:06.496Z,19.72
2017-05-30T01:26:25.329Z,19.76
2017-05-30T01:26:44.724Z,19.64
2017-05-30T01:27:04.689Z,19.68
2017-05-30T01:27:24.073Z,19.61
2017-05-30T01:27:44.037Z,19.58
2017-05-30T01:28:04.007Z,19.65
2017-05-30T01:28:22.900Z,19.65
2017-05-30T01:28:42.825Z,19.63
2017-05-30T01:29:02.795Z,19.76
2017-05-30T01:29:22.806Z,19.61
2017-05-30T01:29:42.787Z,19.73
2017-05-30T01:30:02.777Z,19.71
2017-05-30T01:30:21.088Z,19.76
2017-05-30T01:30:41.030Z,19.72
2017-05-30T01:31:00.443Z,19.76
2017-05-30T01:31:20.457Z,19.75
2017-05-30T01:31:40.421Z,19.72
2017-05-30T01:31:59.830Z,19.76
2017-05-30T01:32:19.782Z,19.71
2017-05-30T01:32:39.180Z,19.68
2017-05-30T01:32:59.184Z,19.71
2017-05-30T01:33:19.122Z,19.65
2017-05-30T01:33:38.539Z,19.72
2017-05-30T01:33:57.948Z,19.75
2017-05-30T01:34:17.353Z,19.76
2017-05-30T01:34:36.794Z,19.72
2017-05-30T01:34:56.774Z,19.73
2017-05-30T01:35:16.764Z,19.73
2017-05-30T01:35:36.768Z,19.73
2017-05-30T01:35:56.764Z,19.69
2017-05-30T01:36:16.719Z,19.65
2017-05-30T01:36:36.116Z,19.68
2017-05-30T01:36:56.073Z,19.73
2017-05-30T01:37:15.516Z,19.68
2017-05-30T01:37:34.941Z,19.72
2017-05-30T01:37:54.993Z,19.63
2017-05-30T01:38:14.969Z,19.57
2017-05-30T01:38:34.924Z,19.64
2017-05-30T01:38:54.901Z,19.58
2017-05-30T01:39:14.930Z,19.57
2017-05-30T01:39:34.360Z,19.57
2017-05-30T01:39:53.777Z,19.58
2017-05-30T01:40:13.740Z,19.63
2017-05-30T01:40:33.775Z,19.6
2017-05-30T01:40:53.195Z,19.6
2017-05-30T01:41:13.154Z,19.6
2017-05-30T01:41:32.679Z,19.58
2017-05-30T01:41:52.099Z,19.65
2017-05-30T01:42:12.072Z,19.61
2017-05-30T01:42:32.063Z,19.61
2017-05-30T01:42:51.484Z,19.61
2017-05-30T01:43:11.489Z,19.58
2017-05-30T01:43:30.903Z,19.6
2017-05-30T01:43:50.824Z,19.63
2017-05-30T01:44:10.241Z,19.63
2017-05-30T01:44:29.090Z,19.61
2017-05-30T01:44:49.032Z,19.58
2017-05-30T01:45:07.883Z,19.65
2017-05-30T01:45:27.852Z,19.69
2017-05-30T01:45:47.814Z,19.73
2017-05-30T01:46:07.799Z,19.73
2017-05-30T01:46:27.211Z,19.65
2017-05-30T01:46:47.163Z,19.68
2017-05-30T01:47:05.993Z,19.73
2017-05-30T01:47:25.384Z,19.64
2017-05-30T01:47:44.778Z,19.65
2017-05-30T01:48:04.759Z,19.64
2017-05-30T01:48:24.746Z,19.63
2017-05-30T01:48:44.748Z,19.6
2017-05-30T01:49:04.704Z,19.55
2017-05-30T01:49:24.108Z,19.61
2017-05-30T01:49:44.075Z,19.58
2017-05-30T01:50:04.058Z,19.61
2017-05-30T01:50:24.013Z,19.64
2017-05-30T01:50:44.039Z,19.63
2017-05-30T01:51:04.022Z,19.71
2017-05-30T01:51:23.990Z,19.58
2017-05-30T01:51:43.975Z,19.53
2017-05-30T01:52:03.936Z,19.53
2017-05-30T01:52:23.888Z,19.54
2017-05-30T01:52:43.251Z,19.5
2017-05-30T01:53:03.257Z,19.54
2017-05-30T01:53:23.220Z,19.54
2017-05-30T01:53:43.204Z,19.5
2017-05-30T01:54:02.644Z,19.48
2017-05-30T01:54:22.030Z,19.48
2017-05-30T01:54:42.012Z,19.36
2017-05-30T01:55:01.920Z,19.38
2017-05-30T01:55:21.342Z,19.4
2017-05-30T01:55:41.304Z,19.33
2017-05-30T01:56:01.269Z,19.36
2017-05-30T01:56:21.252Z,19.28
2017-05-30T01:56:41.217Z,19.28
2017-05-30T01:57:01.136Z,19.31
2017-05-30T01:57:21.104Z,19.23
2017-05-30T01:57:41.063Z,19.21
2017-05-30T01:58:01.030Z,19.27
2017-05-30T01:58:21.035Z,19.25
2017-05-30T01:58:41.018Z,19.25
2017-05-30T01:59:01.002Z,19.32
2017-05-30T01:59:19.825Z,19.32
2017-05-30T01:59:38.149Z,19.28
2017-05-30T01:59:58.113Z,19.33
2017-05-30T02:00:17.472Z,19.27
2017-05-30T02:00:36.880Z,19.32
2017-05-30T02:00:56.303Z,19.31
2017-05-30T02:01:16.279Z,19.31
2017-05-30T02:01:35.118Z,19.46
2017-05-30T02:01:54.526Z,19.35
2017-05-30T02:02:14.492Z,19.38
2017-05-30T02:02:34.478Z,19.32
2017-05-30T02:02:54.061Z,19.36
2017-05-30T02:03:12.901Z,19.38
2017-05-30T02:03:32.328Z,19.32
2017-05-30T02:03:52.309Z,19.42
2017-05-30T02:04:11.718Z,19.39
2017-05-30T02:04:31.158Z,19.38
2017-05-30T02:04:50.007Z,19.36
2017-05-30T02:05:09.445Z,19.32
2017-05-30T02:05:29.424Z,19.35
2017-05-30T02:05:49.405Z,19.28
2017-05-30T02:06:09.404Z,19.32
2017-05-30T02:06:29.388Z,19.31
2017-05-30T02:06:48.790Z,19.33
2017-05-30T02:07:08.731Z,19.27
2017-05-30T02:07:28.702Z,19.28
2017-05-30T02:07:48.652Z,19.24
2017-05-30T02:08:08.685Z,19.27
2017-05-30T02:08:28.096Z,19.28
2017-05-30T02:08:48.070Z,19.33
2017-05-30T02:09:07.507Z,19.4
2017-05-30T02:09:26.937Z,19.42
2017-05-30T02:09:46.934Z,19.28
2017-05-30T02:10:06.901Z,19.28
2017-05-30T02:10:25.742Z,19.32
2017-05-30T02:10:44.561Z,19.39
2017-05-30T02:11:04.557Z,19.28
2017-05-30T02:11:23.947Z,19.45
2017-05-30T02:11:43.923Z,19.39
2017-05-30T02:12:03.907Z,19.33
2017-05-30T02:12:23.866Z,19.4
2017-05-30T02:12:43.790Z,19.35
2017-05-30T02:13:03.745Z,19.38
2017-05-30T02:13:22.601Z,19.33
2017-05-30T02:13:41.455Z,19.38
2017-05-30T02:14:00.322Z,19.33
2017-05-30T02:14:19.166Z,19.27
2017-05-30T02:14:39.140Z,19.31
2017-05-30T02:14:59.121Z,19.32
2017-05-30T02:15:18.499Z,19.35
2017-05-30T02:15:38.509Z,19.31
2017-05-30T02:15:58.471Z,19.35
2017-05-30T02:16:18.441Z,19.33
2017-05-30T02:16:38.537Z,19.31
2017-05-30T02:16:58.570Z,19.42
2017-05-30T02:17:17.972Z,19.38
2017-05-30T02:17:37.941Z,19.38
2017-05-30T02:17:57.904Z,19.35
2017-05-30T02:18:17.897Z,19.32
2017-05-30T02:18:37.890Z,19.4
2017-05-30T02:18:57.304Z,19.32
2017-05-30T02:19:16.715Z,19.4
2017-05-30T02:19:36.714Z,19.38
2017-05-30T02:19:56.671Z,19.33
2017-05-30T02:20:16.659Z,19.31
2017-05-30T02:20:36.107Z,19.28
2017-05-30T02:20:56.109Z,19.31
2017-05-30T02:21:16.182Z,19.33
2017-05-30T02:21:36.500Z,19.36
2017-05-30T02:21:55.937Z,19.25
2017-05-30T02:22:14.837Z,19.31
2017-05-30T02:22:34.871Z,19.32
2017-05-30T02:22:55.061Z,19.28
2017-05-30T02:23:15.516Z,19.33
2017-05-30T02:23:35.545Z,19.31
2017-05-30T02:23:55.557Z,19.31
2017-05-30T02:24:15.589Z,19.24
2017-05-30T02:24:35.097Z,19.17
2017-05-30T02:24:54.555Z,19.13
2017-05-30T02:25:14.048Z,19.13
2017-05-30T02:25:33.496Z,19.21
2017-05-30T02:25:53.520Z,19.35
2017-05-30T02:26:13.565Z,19.24
2017-05-30T02:26:33.557Z,19.33
2017-05-30T02:26:53.591Z,19.33
2017-05-30T02:27:13.622Z,19.27
2017-05-30T02:27:32.502Z,19.23
2017-05-30T02:27:52.533Z,19.23
2017-05-30T02:28:12.598Z,19.31
2017-05-30T02:28:32.616Z,19.28
2017-05-30T02:28:52.614Z,19.25
2017-05-30T02:29:12.065Z,19.28
2017-05-30T02:29:32.079Z,19.25
2017-05-30T02:29:52.155Z,19.31
2017-05-30T02:30:11.620Z,19.31
2017-05-30T02:30:31.073Z,19.27
2017-05-30T02:30:50.526Z,19.32
2017-05-30T02:31:10.542Z,19.27
2017-05-30T02:31:30.928Z,19.25
2017-05-30T02:31:50.372Z,19.25
2017-05-30T02:32:10.379Z,19.27
2017-05-30T02:32:30.384Z,19.23
2017-05-30T02:32:49.884Z,19.33
2017-05-30T02:33:09.922Z,19.33
2017-05-30T02:33:29.382Z,19.23
2017-05-30T02:33:49.388Z,19.25
2017-05-30T02:34:09.356Z,19.32
2017-05-30T02:34:28.780Z,19.42
2017-05-30T02:34:48.757Z,19.38
2017-05-30T02:35:08.775Z,19.25
2017-05-30T02:35:28.782Z,19.32
2017-05-30T02:35:48.806Z,19.24
2017-05-30T02:36:08.209Z,19.15
2017-05-30T02:36:27.088Z,19.13
2017-05-30T02:36:47.042Z,19.13
2017-05-30T02:37:06.982Z,19.09
2017-05-30T02:37:25.871Z,19.13
2017-05-30T02:37:45.294Z,19.09
2017-05-30T02:38:05.218Z,19.06
2017-05-30T02:38:25.210Z,19.13
2017-05-30T02:38:44.632Z,19.01
2017-05-30T02:39:04.647Z,19.09
2017-05-30T02:39:24.604Z,19.23
2017-05-30T02:39:43.993Z,19.15
2017-05-30T02:40:03.356Z,19.25
2017-05-30T02:40:22.769Z,19.31
2017-05-30T02:40:41.581Z,19.25
2017-05-30T02:41:01.887Z,19.32
2017-05-30T02:41:21.249Z,19.25
2017-05-30T02:41:41.220Z,19.23
2017-05-30T02:42:01.168Z,19.23
2017-05-30T02:42:20.584Z,19.24
2017-05-30T02:42:39.994Z,19.23
2017-05-30T02:42:59.979Z,19.25
2017-05-30T02:43:19.905Z,19.2
2017-05-30T02:43:39.848Z,19.15
2017-05-30T02:43:59.792Z,19.14
2017-05-30T02:44:19.745Z,19.2
2017-05-30T02:44:39.157Z,19.15
2017-05-30T02:44:59.105Z,19.14
2017-05-30T02:45:17.951Z,19.17
2017-05-30T02:45:37.380Z,19.14
2017-05-30T02:45:57.379Z,19.14
2017-05-30T02:46:16.777Z,19.23
2017-05-30T02:46:35.722Z,19.25
2017-05-30T02:46:55.654Z,19.27
2017-05-30T02:47:15.083Z,19.28
2017-05-30T02:47:34.488Z,19.31
2017-05-30T02:47:54.490Z,19.32
2017-05-30T02:48:13.358Z,19.28
2017-05-30T02:48:32.778Z,19.27
2017-05-30T02:48:52.782Z,19.36
2017-05-30T02:49:12.802Z,19.32
2017-05-30T02:49:32.258Z,19.32
2017-05-30T02:49:51.696Z,19.31
2017-05-30T02:50:11.111Z,19.32
2017-05-30T02:50:31.063Z,19.23
2017-05-30T02:50:51.030Z,19.21
2017-05-30T02:51:09.880Z,19.28
2017-05-30T02:51:29.836Z,19.25
2017-05-30T02:51:49.756Z,19.25
2017-05-30T02:52:09.157Z,19.27
2017-05-30T02:52:28.553Z,19.32
2017-05-30T02:52:47.404Z,19.23
2017-05-30T02:53:07.377Z,19.2
2017-05-30T02:53:27.370Z,19.25
2017-05-30T02:53:47.316Z,19.27
2017-05-30T02:54:07.291Z,19.31
2017-05-30T02:54:26.737Z,19.33
2017-05-30T02:54:46.710Z,19.27
2017-05-30T02:55:06.660Z,19.23
2017-05-30T02:55:26.108Z,19.21
2017-05-30T02:55:46.118Z,19.28
2017-05-30T02:56:06.045Z,19.24
2017-05-30T02:56:26.015Z,19.27
2017-05-30T02:56:45.404Z,19.25
2017-05-30T02:57:04.811Z,19.28
2017-05-30T02:57:24.778Z,19.31
2017-05-30T02:57:44.764Z,19.2
2017-05-30T02:58:04.721Z,19.28
2017-05-30T02:58:24.692Z,19.25
2017-05-30T02:58:44.643Z,19.28
2017-05-30T02:59:04.614Z,19.31
2017-05-30T02:59:24.033Z,19.32
2017-05-30T02:59:44.044Z,19.24
2017-05-30T03:00:03.996Z,19.28
2017-05-30T03:00:23.428Z,19.33
2017-05-30T03:00:43.375Z,19.24
2017-05-30T03:01:03.301Z,19.31
2017-05-30T03:01:22.141Z,19.27
2017-05-30T03:01:42.119Z,19.25
2017-05-30T03:02:01.535Z,19.23
2017-05-30T03:02:20.923Z,19.24
2017-05-30T03:02:40.323Z,19.27
2017-05-30T03:02:59.749Z,19.25
2017-05-30T03:03:19.764Z,19.31
2017-05-30T03:03:39.759Z,19.2
2017-05-30T03:03:59.129Z,19.25
2017-05-30T03:04:19.109Z,19.23
2017-05-30T03:04:39.083Z,19.25
2017-05-30T03:04:59.066Z,19.25
2017-05-30T03:05:18.994Z,19.21
2017-05-30T03:05:38.438Z,19.25
2017-05-30T03:05:58.392Z,19.31
2017-05-30T03:06:18.373Z,19.23
2017-05-30T03:06:38.305Z,19.23
2017-05-30T03:06:57.725Z,19.21
2017-05-30T03:07:17.143Z,19.18
2017-05-30T03:07:37.081Z,19.18
2017-05-30T03:07:56.503Z,19.2
2017-05-30T03:08:15.921Z,19.17
2017-05-30T03:08:35.875Z,19.13
2017-05-30T03:08:55.837Z,19.08
2017-05-30T03:09:15.268Z,19.18
2017-05-30T03:09:34.680Z,19.15
2017-05-30T03:09:54.665Z,19.18
2017-05-30T03:10:14.053Z,19.14
2017-05-30T03:10:32.923Z,19.21
2017-05-30T03:10:52.287Z,19.17
2017-05-30T03:11:12.245Z,19.11
2017-05-30T03:11:32.180Z,19.23
2017-05-30T03:11:52.109Z,19.11
2017-05-30T03:12:11.494Z,19.2
2017-05-30T03:12:30.914Z,19.11
2017-05-30T03:12:50.309Z,19.13
2017-05-30T03:13:09.698Z,19.17
2017-05-30T03:13:27.992Z,19.14
2017-05-30T03:13:47.369Z,19.2
2017-05-30T03:14:07.328Z,19.2
2017-05-30T03:14:26.138Z,19.17
2017-05-30T03:14:46.123Z,19.23
2017-05-30T03:15:05.530Z,19.2
2017-05-30T03:15:25.518Z,19.2
2017-05-30T03:15:44.952Z,19.2
2017-05-30T03:16:04.893Z,19.21
2017-05-30T03:16:24.908Z,19.21
2017-05-30T03:16:44.282Z,19.08
2017-05-30T03:17:03.163Z,19.18
2017-05-30T03:17:23.094Z,19.14
2017-05-30T03:17:43.031Z,19.08
2017-05-30T03:18:02.963Z,19.11
2017-05-30T03:18:22.958Z,19.14
2017-05-30T03:18:42.963Z,19.09
2017-05-30T03:19:02.361Z,19.15
2017-05-30T03:19:21.813Z,19.14
2017-05-30T03:19:41.191Z,19.09
2017-05-30T03:20:01.170Z,19.09
2017-05-30T03:20:21.143Z,19.11
2017-05-30T03:20:41.130Z,19.08
2017-05-30T03:21:01.104Z,19.11
2017-05-30T03:21:20.495Z,19.06
2017-05-30T03:21:39.871Z,19.13
2017-05-30T03:21:59.848Z,19.14
2017-05-30T03:22:19.830Z,19.13
2017-05-30T03:22:39.788Z,19.09
2017-05-30T03:22:59.772Z,19.08
2017-05-30T03:23:19.737Z,19.15
2017-05-30T03:23:39.152Z,19.18
2017-05-30T03:23:59.103Z,19.11
2017-05-30T03:24:19.057Z,19.11
2017-05-30T03:24:37.920Z,19.11
2017-05-30T03:24:57.885Z,19.05
2017-05-30T03:25:17.882Z,19.17
2017-05-30T03:25:37.284Z,19.17
2017-05-30T03:25:57.263Z,19.2
2017-05-30T03:26:17.228Z,19.11
2017-05-30T03:26:37.602Z,19.2
2017-05-30T03:26:56.996Z,19.17
2017-05-30T03:27:16.931Z,19.17
2017-05-30T03:27:36.324Z,19.13
2017-05-30T03:27:56.320Z,19.2
2017-05-30T03:28:15.143Z,19.14
2017-05-30T03:28:34.544Z,19.11
2017-05-30T03:28:54.480Z,19.14
2017-05-30T03:29:14.460Z,19.17
2017-05-30T03:29:34.424Z,19.15
2017-05-30T03:29:54.398Z,19.17
2017-05-30T03:30:14.371Z,19.11
2017-05-30T03:30:33.759Z,19.17
2017-05-30T03:30:53.722Z,19.08
2017-05-30T03:31:13.686Z,19.06
2017-05-30T03:31:33.937Z,19.15
2017-05-30T03:31:53.943Z,19.17
2017-05-30T03:32:13.386Z,19.14
2017-05-30T03:32:33.376Z,19.15
2017-05-30T03:32:53.346Z,19.14
2017-05-30T03:33:12.771Z,19.13
2017-05-30T03:33:32.192Z,19.17
2017-05-30T03:33:52.151Z,19.18
2017-05-30T03:34:12.085Z,19.11
2017-05-30T03:34:31.499Z,19.21
2017-05-30T03:34:50.924Z,19.13
2017-05-30T03:35:10.869Z,19.11
2017-05-30T03:35:30.280Z,19.13
2017-05-30T03:35:50.239Z,19.2
2017-05-30T03:36:10.176Z,19.2
2017-05-30T03:36:30.114Z,19.11
2017-05-30T03:36:50.085Z,19.13
2017-05-30T03:37:10.030Z,19.2
2017-05-30T03:37:29.983Z,19.15
2017-05-30T03:37:49.928Z,19.17
2017-05-30T03:38:09.387Z,19.23
2017-05-30T03:38:29.340Z,19.15
2017-05-30T03:38:49.285Z,19.23
2017-05-30T03:39:09.286Z,19.17
2017-05-30T03:39:29.294Z,19.2
2017-05-30T03:39:49.255Z,19.2
2017-05-30T03:40:08.654Z,19.09
2017-05-30T03:40:28.646Z,19.09
2017-05-30T03:40:48.048Z,19.15
2017-05-30T03:41:08.034Z,19.13
2017-05-30T03:41:27.953Z,19.06
2017-05-30T03:41:46.766Z,19.17
2017-05-30T03:42:06.205Z,19.2
2017-05-30T03:42:25.646Z,19.14
2017-05-30T03:42:44.505Z,19.27
2017-05-30T03:43:04.477Z,19.27
2017-05-30T03:43:24.446Z,19.27
2017-05-30T03:43:44.422Z,19.27
2017-05-30T03:44:04.376Z,19.25
2017-05-30T03:44:23.777Z,19.27
2017-05-30T03:44:43.193Z,19.27
2017-05-30T03:45:02.067Z,19.23
2017-05-30T03:45:21.464Z,19.27
2017-05-30T03:45:41.421Z,19.21
2017-05-30T03:46:00.261Z,19.31
2017-05-30T03:46:19.660Z,19.32
2017-05-30T03:46:39.088Z,19.33
2017-05-30T03:46:59.084Z,19.31
2017-05-30T03:47:18.483Z,19.32
2017-05-30T03:47:38.478Z,19.27
2017-05-30T03:47:57.902Z,19.32
2017-05-30T03:48:17.323Z,19.33
2017-05-30T03:48:37.282Z,19.28
2017-05-30T03:48:57.247Z,19.25
2017-05-30T03:49:16.618Z,19.32
2017-05-30T03:49:35.510Z,19.28
2017-05-30T03:49:55.533Z,19.27
2017-05-30T03:50:14.399Z,19.32
2017-05-30T03:50:34.367Z,19.32
2017-05-30T03:50:54.357Z,19.28
2017-05-30T03:51:13.221Z,19.28
2017-05-30T03:51:33.176Z,19.21
2017-05-30T03:51:52.596Z,19.21
2017-05-30T03:52:11.991Z,19.31
2017-05-30T03:52:31.359Z,19.28
2017-05-30T03:52:51.293Z,19.35
2017-05-30T03:53:10.116Z,19.27
2017-05-30T03:53:30.053Z,19.18
2017-05-30T03:53:50.034Z,19.25
2017-05-30T03:54:09.979Z,19.27
2017-05-30T03:54:29.380Z,19.25
2017-05-30T03:54:49.341Z,19.25
2017-05-30T03:55:09.294Z,19.32
2017-05-30T03:55:29.229Z,19.25
2017-05-30T03:55:49.214Z,19.27
2017-05-30T03:56:08.061Z,19.32
2017-05-30T03:56:27.569Z,19.32
2017-05-30T03:56:47.491Z,19.27
2017-05-30T03:57:07.442Z,19.28
2017-05-30T03:57:27.388Z,19.27
2017-05-30T03:57:47.362Z,19.31
2017-05-30T03:58:06.777Z,19.28
2017-05-30T03:58:25.651Z,19.23
2017-05-30T03:58:45.063Z,19.27
2017-05-30T03:59:05.045Z,19.28
2017-05-30T03:59:24.993Z,19.32
2017-05-30T03:59:44.460Z,19.31
2017-05-30T04:00:04.445Z,19.27
2017-05-30T04:00:23.849Z,19.28
2017-05-30T04:00:43.814Z,19.31
2017-05-30T04:01:03.814Z,19.31
2017-05-30T04:01:23.234Z,19.31
2017-05-30T04:01:43.208Z,19.33
2017-05-30T04:02:03.192Z,19.35
2017-05-30T04:02:22.595Z,19.38
2017-05-30T04:02:41.997Z,19.33
2017-05-30T04:03:01.962Z,19.32
2017-05-30T04:03:21.350Z,19.42
2017-05-30T04:03:41.329Z,19.36
2017-05-30T04:04:00.738Z,19.39
2017-05-30T04:04:20.681Z,19.42
2017-05-30T04:04:40.691Z,19.39
2017-05-30T04:05:00.629Z,19.38
2017-05-30T04:05:20.604Z,19.31
2017-05-30T04:05:40.008Z,19.35
2017-05-30T04:05:59.994Z,19.38
2017-05-30T04:06:19.964Z,19.38
2017-05-30T04:06:39.616Z,19.39
2017-05-30T04:06:59.582Z,19.32
2017-05-30T04:07:19.530Z,19.39
2017-05-30T04:07:39.500Z,19.28
2017-05-30T04:07:59.517Z,19.39
2017-05-30T04:08:18.367Z,19.35
2017-05-30T04:08:38.303Z,19.35
2017-05-30T04:08:58.251Z,19.31
2017-05-30T04:09:18.242Z,19.35
2017-05-30T04:09:37.687Z,19.32
2017-05-30T04:09:57.666Z,19.33
2017-05-30T04:10:17.079Z,19.27
2017-05-30T04:10:37.049Z,19.28
2017-05-30T04:10:57.032Z,19.35
2017-05-30T04:11:16.473Z,19.32
2017-05-30T04:11:36.682Z,19.35
2017-05-30T04:11:56.081Z,19.28
2017-05-30T04:12:14.896Z,19.25
2017-05-30T04:12:33.745Z,19.25
2017-05-30T04:12:53.709Z,19.27
2017-05-30T04:13:12.561Z,19.32
2017-05-30T04:13:31.448Z,19.31
2017-05-30T04:13:51.401Z,19.32
2017-05-30T04:14:10.824Z,19.25
2017-05-30T04:14:30.776Z,19.28
2017-05-30T04:14:50.198Z,19.32
2017-05-30T04:15:10.163Z,19.31